Pierre Regional Airport
KPIR : now visible

Airfield :











YOU CAN JOIN US ON...

 
LOGIN :

Register | Disclaimer

   EN    FR    IT 

 









Legend :    VFR   Marginal VFR   IFR   Intensive IFR   Very Intensive IFR
Visi :
Ceiling :
>= 8 km
>= 3000ft
5 to 8 km
1000 to 3000 ft
1500m to 5 km
500 to 1000 ft
800 to 1500m
200 to 500 ft
< 800m
< 200 ft
Symbols :   Thunderstorms  Fog  Heavy snow  Heavy precipitations  Wind > 20 kt






- Airport Elevation : 1744 ft
- IATA code : PIR


KPIR - Pierre Regional

CURRENT METAR :
  • 221153Z AUTO 15004KT 10SM CLR M09/M11 A3015 RMK AO2 SLP237 7//// T10941106 11061 21094 56018

EXPIRED METARs :
  • 221053Z AUTO 22004KT 10SM CLR M07/M09 A3016 RMK AO2 SLP238 T10671094
  • 220953Z AUTO 21004KT 10SM CLR M07/M09 A3018 RMK AO2 SLP243 T10721094

TAF KPIR
Valid from the 22 at 12:00 until the 23 at 12:00 UTC


221135Z 2212/2312 20005KT P6SM SKC
FM221800 21012G18KT P6SM SKC
FM222300 18010KT P6SM SKC
FM230200 23006KT P6SM FEW250



MET'MAP, your aeronautical weather chart ! - Copyright ORBIFLY December 2007 - Disclaimer

ORBIFLY MET'MAP TEAM :

Programming & Development : Alexandra Zaïnal
Concept & Development : Baudouin d'Aumeries
Co-Development & Prog : Marc-Olivier Méhu
Technical & hardware support : Manuel Goepfert

Contact : metmap@orbifly.com




SOURCES & CREDITS :

   NOAA       Earth
Advisory